sensor_id;sensor_type;location;lat;lon;timestamp;P1;durP1;ratioP1;P2;durP2;ratioP2
16506;SDS011;8366;51.020;7.642;2022-11-15T00:02:00;18.03;;;9.07;;
16506;SDS011;8366;51.020;7.642;2022-11-15T00:04:29;13.23;;;8.80;;
16506;SDS011;8366;51.020;7.642;2022-11-15T00:06:55;12.83;;;8.77;;
16506;SDS011;8366;51.020;7.642;2022-11-15T00:09:21;14.23;;;8.70;;
16506;SDS011;8366;51.020;7.642;2022-11-15T00:11:48;12.33;;;9.57;;
16506;SDS011;8366;51.020;7.642;2022-11-15T00:14:14;12.33;;;8.73;;
16506;SDS011;8366;51.020;7.642;2022-11-15T00:16:41;11.80;;;8.87;;
16506;SDS011;8366;51.020;7.642;2022-11-15T00:19:09;13.20;;;9.73;;
16506;SDS011;8366;51.020;7.642;2022-11-15T00:21:35;14.00;;;8.80;;
16506;SDS011;8366;51.020;7.642;2022-11-15T00:24:01;15.50;;;9.27;;
16506;SDS011;8366;51.020;7.642;2022-11-15T00:26:28;13.97;;;9.33;;
16506;SDS011;8366;51.020;7.642;2022-11-15T00:28:54;13.20;;;9.23;;
16506;SDS011;8366;51.020;7.642;2022-11-15T00:31:21;14.20;;;9.20;;
16506;SDS011;8366;51.020;7.642;2022-11-15T00:33:47;15.80;;;9.47;;
16506;SDS011;8366;51.020;7.642;2022-11-15T00:36:15;12.40;;;9.27;;
16506;SDS011;8366;51.020;7.642;2022-11-15T00:38:42;12.87;;;8.83;;
16506;SDS011;8366;51.020;7.642;2022-11-15T00:41:08;12.53;;;8.67;;
16506;SDS011;8366;51.020;7.642;2022-11-15T00:43:35;13.40;;;9.37;;
16506;SDS011;8366;51.020;7.642;2022-11-15T00:46:02;15.93;;;9.80;;
16506;SDS011;8366;51.020;7.642;2022-11-15T00:48:28;13.77;;;9.43;;
16506;SDS011;8366;51.020;7.642;2022-11-15T00:50:56;15.27;;;10.13;;
16506;SDS011;8366;51.020;7.642;2022-11-15T00:53:24;15.67;;;9.33;;
16506;SDS011;8366;51.020;7.642;2022-11-15T00:55:50;15.60;;;9.33;;
16506;SDS011;8366;51.020;7.642;2022-11-15T00:58:17;13.07;;;9.03;;
16506;SDS011;8366;51.020;7.642;2022-11-15T01:00:43;13.87;;;9.57;;
16506;SDS011;8366;51.020;7.642;2022-11-15T01:03:10;14.93;;;9.27;;
16506;SDS011;8366;51.020;7.642;2022-11-15T01:05:36;13.50;;;9.60;;
16506;SDS011;8366;51.020;7.642;2022-11-15T01:08:03;18.57;;;9.27;;
16506;SDS011;8366;51.020;7.642;2022-11-15T01:10:31;14.00;;;9.30;;
16506;SDS011;8366;51.020;7.642;2022-11-15T01:12:58;12.43;;;8.97;;
16506;SDS011;8366;51.020;7.642;2022-11-15T01:15:24;11.07;;;8.53;;
16506;SDS011;8366;51.020;7.642;2022-11-15T01:17:50;12.77;;;8.77;;
16506;SDS011;8366;51.020;7.642;2022-11-15T01:20:17;13.43;;;9.13;;
16506;SDS011;8366;51.020;7.642;2022-11-15T01:22:44;11.73;;;8.77;;
16506;SDS011;8366;51.020;7.642;2022-11-15T01:25:10;10.07;;;8.37;;
16506;SDS011;8366;51.020;7.642;2022-11-15T01:27:38;16.47;;;9.63;;
16506;SDS011;8366;51.020;7.642;2022-11-15T01:30:05;12.50;;;8.10;;
16506;SDS011;8366;51.020;7.642;2022-11-15T01:32:33;11.83;;;8.33;;
16506;SDS011;8366;51.020;7.642;2022-11-15T01:34:59;11.63;;;8.37;;
16506;SDS011;8366;51.020;7.642;2022-11-15T01:37:26;10.20;;;7.70;;
16506;SDS011;8366;51.020;7.642;2022-11-15T01:39:52;11.20;;;8.20;;
16506;SDS011;8366;51.020;7.642;2022-11-15T01:42:19;11.20;;;7.53;;
16506;SDS011;8366;51.020;7.642;2022-11-15T01:44:47;11.10;;;7.37;;
16506;SDS011;8366;51.020;7.642;2022-11-15T01:47:15;11.47;;;8.00;;
16506;SDS011;8366;51.020;7.642;2022-11-15T01:49:45;10.40;;;6.90;;
16506;SDS011;8366;51.020;7.642;2022-11-15T01:52:17;9.77;;;7.13;;
16506;SDS011;8366;51.020;7.642;2022-11-15T01:54:45;11.37;;;7.00;;
16506;SDS011;8366;51.020;7.642;2022-11-15T01:57:12;8.97;;;7.07;;
16506;SDS011;8366;51.020;7.642;2022-11-15T01:59:40;9.00;;;6.33;;
16506;SDS011;8366;51.020;7.642;2022-11-15T02:02:09;9.50;;;6.50;;
16506;SDS011;8366;51.020;7.642;2022-11-15T02:04:37;10.43;;;6.70;;
16506;SDS011;8366;51.020;7.642;2022-11-15T02:07:06;10.07;;;6.63;;
16506;SDS011;8366;51.020;7.642;2022-11-15T02:09:35;8.00;;;6.17;;
16506;SDS011;8366;51.020;7.642;2022-11-15T02:12:02;8.93;;;6.13;;
16506;SDS011;8366;51.020;7.642;2022-11-15T02:14:29;9.30;;;6.20;;
16506;SDS011;8366;51.020;7.642;2022-11-15T02:16:58;8.73;;;6.10;;
16506;SDS011;8366;51.020;7.642;2022-11-15T02:19:37;10.00;;;6.67;;
16506;SDS011;8366;51.020;7.642;2022-11-15T02:22:23;7.47;;;5.80;;
16506;SDS011;8366;51.020;7.642;2022-11-15T02:25:01;9.37;;;6.20;;
16506;SDS011;8366;51.020;7.642;2022-11-15T02:27:38;9.87;;;6.17;;
16506;SDS011;8366;51.020;7.642;2022-11-15T02:30:22;9.23;;;6.30;;
16506;SDS011;8366;51.020;7.642;2022-11-15T02:32:50;8.13;;;6.13;;
16506;SDS011;8366;51.020;7.642;2022-11-15T02:35:21;11.43;;;6.77;;
16506;SDS011;8366;51.020;7.642;2022-11-15T02:37:55;7.77;;;5.90;;
16506;SDS011;8366;51.020;7.642;2022-11-15T02:40:25;7.83;;;6.20;;
16506;SDS011;8366;51.020;7.642;2022-11-15T02:42:55;7.33;;;5.90;;
16506;SDS011;8366;51.020;7.642;2022-11-15T02:45:44;7.63;;;5.87;;
16506;SDS011;8366;51.020;7.642;2022-11-15T02:48:12;7.90;;;5.70;;
16506;SDS011;8366;51.020;7.642;2022-11-15T02:50:39;9.40;;;5.80;;
16506;SDS011;8366;51.020;7.642;2022-11-15T02:53:07;8.00;;;5.50;;
16506;SDS011;8366;51.020;7.642;2022-11-15T02:55:35;8.73;;;5.83;;
16506;SDS011;8366;51.020;7.642;2022-11-15T03:01:03;7.30;;;5.60;;
16506;SDS011;8366;51.020;7.642;2022-11-15T03:03:45;7.27;;;5.53;;
16506;SDS011;8366;51.020;7.642;2022-11-15T03:06:19;6.67;;;5.30;;
16506;SDS011;8366;51.020;7.642;2022-11-15T03:08:54;6.87;;;5.30;;
16506;SDS011;8366;51.020;7.642;2022-11-15T03:11:27;8.20;;;5.67;;
16506;SDS011;8366;51.020;7.642;2022-11-15T03:13:56;6.13;;;5.23;;
16506;SDS011;8366;51.020;7.642;2022-11-15T03:16:27;8.00;;;5.33;;
16506;SDS011;8366;51.020;7.642;2022-11-15T03:18:56;7.57;;;5.53;;
16506;SDS011;8366;51.020;7.642;2022-11-15T03:21:25;8.00;;;5.80;;
16506;SDS011;8366;51.020;7.642;2022-11-15T03:23:54;7.03;;;5.20;;
16506;SDS011;8366;51.020;7.642;2022-11-15T03:26:21;9.87;;;6.00;;
16506;SDS011;8366;51.020;7.642;2022-11-15T03:28:50;6.33;;;5.30;;
16506;SDS011;8366;51.020;7.642;2022-11-15T03:31:18;8.00;;;5.53;;
16506;SDS011;8366;51.020;7.642;2022-11-15T03:34:04;7.40;;;5.80;;
16506;SDS011;8366;51.020;7.642;2022-11-15T03:36:33;9.27;;;5.83;;
16506;SDS011;8366;51.020;7.642;2022-11-15T03:39:01;8.60;;;5.83;;
16506;SDS011;8366;51.020;7.642;2022-11-15T03:41:31;7.73;;;5.70;;
16506;SDS011;8366;51.020;7.642;2022-11-15T03:44:04;7.83;;;5.90;;
16506;SDS011;8366;51.020;7.642;2022-11-15T03:46:33;7.93;;;5.73;;
16506;SDS011;8366;51.020;7.642;2022-11-15T03:49:05;8.20;;;6.17;;
16506;SDS011;8366;51.020;7.642;2022-11-15T03:51:33;9.13;;;6.00;;
16506;SDS011;8366;51.020;7.642;2022-11-15T03:54:01;8.77;;;6.67;;
16506;SDS011;8366;51.020;7.642;2022-11-15T03:56:28;7.03;;;6.33;;
16506;SDS011;8366;51.020;7.642;2022-11-15T03:58:55;7.77;;;6.07;;
16506;SDS011;8366;51.020;7.642;2022-11-15T04:01:21;7.53;;;6.00;;
16506;SDS011;8366;51.020;7.642;2022-11-15T04:03:48;7.43;;;5.73;;
16506;SDS011;8366;51.020;7.642;2022-11-15T04:06:16;8.03;;;5.97;;
16506;SDS011;8366;51.020;7.642;2022-11-15T04:08:42;8.30;;;5.87;;
16506;SDS011;8366;51.020;7.642;2022-11-15T04:11:09;7.93;;;5.90;;
16506;SDS011;8366;51.020;7.642;2022-11-15T04:13:35;9.63;;;5.50;;
16506;SDS011;8366;51.020;7.642;2022-11-15T04:16:02;7.27;;;5.27;;
16506;SDS011;8366;51.020;7.642;2022-11-15T04:18:28;6.80;;;5.50;;
16506;SDS011;8366;51.020;7.642;2022-11-15T04:20:55;7.90;;;5.13;;
16506;SDS011;8366;51.020;7.642;2022-11-15T04:23:40;7.90;;;5.10;;
16506;SDS011;8366;51.020;7.642;2022-11-15T04:26:26;7.53;;;5.20;;
16506;SDS011;8366;51.020;7.642;2022-11-15T04:28:53;7.90;;;5.07;;
16506;SDS011;8366;51.020;7.642;2022-11-15T04:31:37;9.23;;;5.37;;
16506;SDS011;8366;51.020;7.642;2022-11-15T04:34:03;5.93;;;5.20;;
16506;SDS011;8366;51.020;7.642;2022-11-15T04:36:30;7.65;;;5.65;;
16506;SDS011;8366;51.020;7.642;2022-11-15T04:39:15;6.10;;;4.63;;
16506;SDS011;8366;51.020;7.642;2022-11-15T04:41:42;6.80;;;4.73;;
16506;SDS011;8366;51.020;7.642;2022-11-15T04:44:08;7.80;;;5.20;;
16506;SDS011;8366;51.020;7.642;2022-11-15T04:46:35;7.30;;;4.70;;
16506;SDS011;8366;51.020;7.642;2022-11-15T04:49:01;6.93;;;5.00;;
16506;SDS011;8366;51.020;7.642;2022-11-15T04:51:28;5.93;;;4.67;;
16506;SDS011;8366;51.020;7.642;2022-11-15T04:53:55;6.00;;;4.50;;
16506;SDS011;8366;51.020;7.642;2022-11-15T04:56:22;6.40;;;4.63;;
16506;SDS011;8366;51.020;7.642;2022-11-15T04:58:49;5.77;;;4.60;;
16506;SDS011;8366;51.020;7.642;2022-11-15T05:01:16;5.03;;;4.50;;
16506;SDS011;8366;51.020;7.642;2022-11-15T05:03:43;6.17;;;4.43;;
16506;SDS011;8366;51.020;7.642;2022-11-15T05:06:27;6.33;;;4.30;;
16506;SDS011;8366;51.020;7.642;2022-11-15T05:08:54;5.37;;;4.27;;
16506;SDS011;8366;51.020;7.642;2022-11-15T05:11:23;4.40;;;3.90;;
16506;SDS011;8366;51.020;7.642;2022-11-15T05:13:49;7.57;;;4.40;;
16506;SDS011;8366;51.020;7.642;2022-11-15T05:16:16;5.57;;;4.00;;
16506;SDS011;8366;51.020;7.642;2022-11-15T05:18:43;4.50;;;3.83;;
16506;SDS011;8366;51.020;7.642;2022-11-15T05:21:10;6.07;;;4.90;;
16506;SDS011;8366;51.020;7.642;2022-11-15T05:23:37;5.83;;;4.33;;
16506;SDS011;8366;51.020;7.642;2022-11-15T05:26:04;4.93;;;4.30;;
16506;SDS011;8366;51.020;7.642;2022-11-15T05:28:34;4.70;;;3.77;;
16506;SDS011;8366;51.020;7.642;2022-11-15T05:31:01;4.60;;;3.60;;
16506;SDS011;8366;51.020;7.642;2022-11-15T05:33:28;5.33;;;3.90;;
16506;SDS011;8366;51.020;7.642;2022-11-15T05:35:56;4.17;;;3.57;;
16506;SDS011;8366;51.020;7.642;2022-11-15T05:38:25;5.43;;;3.30;;
16506;SDS011;8366;51.020;7.642;2022-11-15T05:40:52;4.80;;;3.20;;
16506;SDS011;8366;51.020;7.642;2022-11-15T05:43:18;4.00;;;3.13;;
16506;SDS011;8366;51.020;7.642;2022-11-15T05:45:46;4.00;;;3.57;;
16506;SDS011;8366;51.020;7.642;2022-11-15T05:48:13;5.47;;;3.40;;
16506;SDS011;8366;51.020;7.642;2022-11-15T05:50:41;4.07;;;3.30;;
16506;SDS011;8366;51.020;7.642;2022-11-15T05:53:09;4.37;;;3.00;;
16506;SDS011;8366;51.020;7.642;2022-11-15T05:55:36;4.50;;;3.33;;
16506;SDS011;8366;51.020;7.642;2022-11-15T05:58:03;3.70;;;2.80;;
16506;SDS011;8366;51.020;7.642;2022-11-15T06:00:30;4.23;;;3.00;;
16506;SDS011;8366;51.020;7.642;2022-11-15T06:02:58;3.87;;;2.90;;
16506;SDS011;8366;51.020;7.642;2022-11-15T06:05:24;5.50;;;3.47;;
16506;SDS011;8366;51.020;7.642;2022-11-15T06:07:51;5.47;;;3.07;;
16506;SDS011;8366;51.020;7.642;2022-11-15T06:10:17;4.23;;;3.40;;
16506;SDS011;8366;51.020;7.642;2022-11-15T06:12:44;4.83;;;3.20;;
16506;SDS011;8366;51.020;7.642;2022-11-15T06:15:10;4.80;;;3.13;;
16506;SDS011;8366;51.020;7.642;2022-11-15T06:17:36;5.57;;;3.27;;
16506;SDS011;8366;51.020;7.642;2022-11-15T06:20:05;4.33;;;3.30;;
16506;SDS011;8366;51.020;7.642;2022-11-15T06:22:32;4.43;;;3.50;;
16506;SDS011;8366;51.020;7.642;2022-11-15T06:24:58;4.07;;;3.20;;
16506;SDS011;8366;51.020;7.642;2022-11-15T06:27:25;4.00;;;3.20;;
16506;SDS011;8366;51.020;7.642;2022-11-15T06:29:51;3.50;;;3.10;;
16506;SDS011;8366;51.020;7.642;2022-11-15T06:32:18;4.40;;;3.07;;
16506;SDS011;8366;51.020;7.642;2022-11-15T06:34:44;4.03;;;2.87;;
16506;SDS011;8366;51.020;7.642;2022-11-15T06:37:12;4.50;;;3.10;;
16506;SDS011;8366;51.020;7.642;2022-11-15T06:39:40;3.77;;;3.17;;
16506;SDS011;8366;51.020;7.642;2022-11-15T06:42:07;3.83;;;3.00;;
16506;SDS011;8366;51.020;7.642;2022-11-15T06:44:34;3.50;;;2.73;;
16506;SDS011;8366;51.020;7.642;2022-11-15T06:47:00;4.50;;;2.60;;
16506;SDS011;8366;51.020;7.642;2022-11-15T06:49:27;4.77;;;2.90;;
16506;SDS011;8366;51.020;7.642;2022-11-15T06:51:53;2.83;;;2.50;;
16506;SDS011;8366;51.020;7.642;2022-11-15T06:54:21;3.13;;;2.73;;
16506;SDS011;8366;51.020;7.642;2022-11-15T06:56:48;3.40;;;2.70;;
16506;SDS011;8366;51.020;7.642;2022-11-15T06:59:15;4.47;;;2.90;;
16506;SDS011;8366;51.020;7.642;2022-11-15T07:01:41;4.37;;;2.90;;
16506;SDS011;8366;51.020;7.642;2022-11-15T07:04:08;3.63;;;2.80;;
16506;SDS011;8366;51.020;7.642;2022-11-15T07:06:34;4.13;;;2.70;;
16506;SDS011;8366;51.020;7.642;2022-11-15T07:09:01;3.87;;;2.60;;
16506;SDS011;8366;51.020;7.642;2022-11-15T07:11:29;4.37;;;2.60;;
16506;SDS011;8366;51.020;7.642;2022-11-15T07:13:56;3.80;;;2.50;;
16506;SDS011;8366;51.020;7.642;2022-11-15T07:16:34;2.40;;;2.20;;
16506;SDS011;8366;51.020;7.642;2022-11-15T07:19:01;4.63;;;2.80;;
16506;SDS011;8366;51.020;7.642;2022-11-15T07:21:27;3.13;;;2.33;;
16506;SDS011;8366;51.020;7.642;2022-11-15T07:23:54;5.03;;;2.70;;
16506;SDS011;8366;51.020;7.642;2022-11-15T07:26:21;4.60;;;3.00;;
16506;SDS011;8366;51.020;7.642;2022-11-15T07:28:48;4.50;;;2.60;;
16506;SDS011;8366;51.020;7.642;2022-11-15T07:31:15;8.07;;;2.80;;
16506;SDS011;8366;51.020;7.642;2022-11-15T07:33:41;3.53;;;2.40;;
16506;SDS011;8366;51.020;7.642;2022-11-15T07:36:08;5.67;;;3.27;;
16506;SDS011;8366;51.020;7.642;2022-11-15T07:38:35;4.23;;;2.73;;
16506;SDS011;8366;51.020;7.642;2022-11-15T07:41:03;3.13;;;2.57;;
16506;SDS011;8366;51.020;7.642;2022-11-15T07:43:30;4.20;;;3.10;;
16506;SDS011;8366;51.020;7.642;2022-11-15T07:46:03;5.87;;;3.13;;
16506;SDS011;8366;51.020;7.642;2022-11-15T07:48:30;3.87;;;3.17;;
16506;SDS011;8366;51.020;7.642;2022-11-15T07:50:57;5.57;;;3.10;;
16506;SDS011;8366;51.020;7.642;2022-11-15T07:53:23;3.63;;;2.90;;
16506;SDS011;8366;51.020;7.642;2022-11-15T07:55:50;4.53;;;3.13;;
16506;SDS011;8366;51.020;7.642;2022-11-15T07:58:18;4.33;;;2.87;;
16506;SDS011;8366;51.020;7.642;2022-11-15T08:00:45;3.80;;;2.60;;
16506;SDS011;8366;51.020;7.642;2022-11-15T08:03:13;5.03;;;3.03;;
16506;SDS011;8366;51.020;7.642;2022-11-15T08:05:41;3.47;;;2.80;;
16506;SDS011;8366;51.020;7.642;2022-11-15T08:08:08;5.50;;;2.90;;
16506;SDS011;8366;51.020;7.642;2022-11-15T08:10:36;4.43;;;3.43;;
16506;SDS011;8366;51.020;7.642;2022-11-15T08:13:03;4.77;;;3.20;;
16506;SDS011;8366;51.020;7.642;2022-11-15T08:15:31;5.13;;;3.03;;
16506;SDS011;8366;51.020;7.642;2022-11-15T08:17:59;3.83;;;3.27;;
16506;SDS011;8366;51.020;7.642;2022-11-15T08:20:28;3.97;;;2.93;;
16506;SDS011;8366;51.020;7.642;2022-11-15T08:22:56;4.73;;;3.00;;
16506;SDS011;8366;51.020;7.642;2022-11-15T08:25:23;4.47;;;2.90;;
16506;SDS011;8366;51.020;7.642;2022-11-15T08:27:51;4.73;;;3.30;;
16506;SDS011;8366;51.020;7.642;2022-11-15T08:30:18;3.83;;;2.83;;
16506;SDS011;8366;51.020;7.642;2022-11-15T08:32:44;3.40;;;2.97;;
16506;SDS011;8366;51.020;7.642;2022-11-15T08:35:11;3.90;;;2.77;;
16506;SDS011;8366;51.020;7.642;2022-11-15T08:37:39;4.23;;;2.93;;
16506;SDS011;8366;51.020;7.642;2022-11-15T08:40:05;3.87;;;3.17;;
16506;SDS011;8366;51.020;7.642;2022-11-15T08:42:33;5.70;;;2.80;;
16506;SDS011;8366;51.020;7.642;2022-11-15T08:44:59;3.50;;;3.00;;
16506;SDS011;8366;51.020;7.642;2022-11-15T08:47:26;4.87;;;3.23;;
16506;SDS011;8366;51.020;7.642;2022-11-15T08:49:53;4.90;;;2.70;;
16506;SDS011;8366;51.020;7.642;2022-11-15T08:52:19;4.63;;;2.83;;
16506;SDS011;8366;51.020;7.642;2022-11-15T08:54:47;4.53;;;2.83;;
16506;SDS011;8366;51.020;7.642;2022-11-15T08:57:14;3.37;;;2.63;;
16506;SDS011;8366;51.020;7.642;2022-11-15T08:59:41;5.20;;;3.13;;
16506;SDS011;8366;51.020;7.642;2022-11-15T09:02:10;4.33;;;2.83;;
16506;SDS011;8366;51.020;7.642;2022-11-15T09:04:39;3.27;;;2.30;;
16506;SDS011;8366;51.020;7.642;2022-11-15T09:07:05;3.47;;;2.73;;
16506;SDS011;8366;51.020;7.642;2022-11-15T09:09:32;4.70;;;3.20;;
16506;SDS011;8366;51.020;7.642;2022-11-15T09:12:00;4.30;;;2.67;;
16506;SDS011;8366;51.020;7.642;2022-11-15T09:14:26;3.27;;;2.50;;
16506;SDS011;8366;51.020;7.642;2022-11-15T09:16:53;2.80;;;2.50;;
16506;SDS011;8366;51.020;7.642;2022-11-15T09:19:20;3.33;;;2.40;;
16506;SDS011;8366;51.020;7.642;2022-11-15T09:21:46;4.20;;;2.60;;
16506;SDS011;8366;51.020;7.642;2022-11-15T09:24:13;6.40;;;2.77;;
16506;SDS011;8366;51.020;7.642;2022-11-15T09:26:39;3.00;;;2.53;;
16506;SDS011;8366;51.020;7.642;2022-11-15T09:29:07;2.97;;;2.63;;
16506;SDS011;8366;51.020;7.642;2022-11-15T09:31:34;3.00;;;2.10;;
16506;SDS011;8366;51.020;7.642;2022-11-15T09:34:00;3.93;;;2.63;;
16506;SDS011;8366;51.020;7.642;2022-11-15T09:36:27;2.73;;;2.30;;
16506;SDS011;8366;51.020;7.642;2022-11-15T09:38:54;4.22;;;2.33;;
16506;SDS011;8366;51.020;7.642;2022-11-15T09:41:29;3.72;;;2.25;;
16506;SDS011;8366;51.020;7.642;2022-11-15T09:44:06;3.43;;;2.47;;
16506;SDS011;8366;51.020;7.642;2022-11-15T09:46:42;4.93;;;2.40;;
16506;SDS011;8366;51.020;7.642;2022-11-15T09:49:15;2.50;;;2.27;;
16506;SDS011;8366;51.020;7.642;2022-11-15T09:51:43;3.40;;;2.33;;
16506;SDS011;8366;51.020;7.642;2022-11-15T09:54:18;4.17;;;2.30;;
16506;SDS011;8366;51.020;7.642;2022-11-15T09:56:49;3.57;;;2.33;;
16506;SDS011;8366;51.020;7.642;2022-11-15T09:59:21;2.47;;;2.23;;
16506;SDS011;8366;51.020;7.642;2022-11-15T10:01:54;3.65;;;2.30;;
16506;SDS011;8366;51.020;7.642;2022-11-15T10:04:25;3.00;;;2.00;;
16506;SDS011;8366;51.020;7.642;2022-11-15T10:06:54;3.45;;;2.45;;
16506;SDS011;8366;51.020;7.642;2022-11-15T10:09:24;4.63;;;2.30;;
16506;SDS011;8366;51.020;7.642;2022-11-15T10:11:54;3.35;;;2.03;;
16506;SDS011;8366;51.020;7.642;2022-11-15T10:14:23;3.50;;;2.20;;
16506;SDS011;8366;51.020;7.642;2022-11-15T10:17:01;3.57;;;2.23;;
16506;SDS011;8366;51.020;7.642;2022-11-15T10:19:34;4.70;;;2.30;;
16506;SDS011;8366;51.020;7.642;2022-11-15T10:22:08;4.13;;;2.27;;
16506;SDS011;8366;51.020;7.642;2022-11-15T10:24:43;2.67;;;2.17;;
16506;SDS011;8366;51.020;7.642;2022-11-15T10:27:11;2.42;;;1.80;;
16506;SDS011;8366;51.020;7.642;2022-11-15T10:29:44;2.53;;;1.80;;
16506;SDS011;8366;51.020;7.642;2022-11-15T10:32:13;3.00;;;2.00;;
16506;SDS011;8366;51.020;7.642;2022-11-15T10:34:41;3.95;;;1.90;;
16506;SDS011;8366;51.020;7.642;2022-11-15T10:37:07;3.72;;;1.95;;
16506;SDS011;8366;51.020;7.642;2022-11-15T10:39:34;2.95;;;1.70;;
16506;SDS011;8366;51.020;7.642;2022-11-15T10:42:15;3.83;;;2.67;;
16506;SDS011;8366;51.020;7.642;2022-11-15T10:44:44;3.10;;;1.77;;
16506;SDS011;8366;51.020;7.642;2022-11-15T10:47:22;5.65;;;2.00;;
16506;SDS011;8366;51.020;7.642;2022-11-15T10:49:54;3.10;;;2.00;;
16506;SDS011;8366;51.020;7.642;2022-11-15T10:52:22;3.35;;;1.90;;
16506;SDS011;8366;51.020;7.642;2022-11-15T10:54:50;3.00;;;1.90;;
16506;SDS011;8366;51.020;7.642;2022-11-15T10:57:19;3.60;;;2.00;;
16506;SDS011;8366;51.020;7.642;2022-11-15T10:59:53;4.72;;;2.05;;
16506;SDS011;8366;51.020;7.642;2022-11-15T11:02:28;2.80;;;2.25;;
16506;SDS011;8366;51.020;7.642;2022-11-15T11:04:56;3.83;;;1.70;;
16506;SDS011;8366;51.020;7.642;2022-11-15T11:07:24;2.13;;;1.60;;
16506;SDS011;8366;51.020;7.642;2022-11-15T11:09:56;3.60;;;1.60;;
16506;SDS011;8366;51.020;7.642;2022-11-15T11:12:27;2.20;;;1.90;;
16506;SDS011;8366;51.020;7.642;2022-11-15T11:14:56;4.93;;;2.00;;
16506;SDS011;8366;51.020;7.642;2022-11-15T11:17:26;2.58;;;1.70;;
16506;SDS011;8366;51.020;7.642;2022-11-15T11:20:00;2.15;;;1.95;;
16506;SDS011;8366;51.020;7.642;2022-11-15T11:22:32;2.45;;;1.20;;
16506;SDS011;8366;51.020;7.642;2022-11-15T11:25:04;3.38;;;1.58;;
16506;SDS011;8366;51.020;7.642;2022-11-15T11:27:41;1.80;;;1.30;;
16506;SDS011;8366;51.020;7.642;2022-11-15T11:30:13;2.80;;;1.52;;
16506;SDS011;8366;51.020;7.642;2022-11-15T11:35:32;4.63;;;1.70;;
16506;SDS011;8366;51.020;7.642;2022-11-15T11:38:05;3.30;;;1.40;;
16506;SDS011;8366;51.020;7.642;2022-11-15T11:40:39;2.50;;;1.30;;
16506;SDS011;8366;51.020;7.642;2022-11-15T11:43:09;2.60;;;1.23;;
16506;SDS011;8366;51.020;7.642;2022-11-15T11:45:46;3.55;;;1.70;;
16506;SDS011;8366;51.020;7.642;2022-11-15T11:48:21;1.50;;;1.30;;
16506;SDS011;8366;51.020;7.642;2022-11-15T11:50:52;3.30;;;1.10;;
16506;SDS011;8366;51.020;7.642;2022-11-15T11:53:26;3.15;;;1.65;;
16506;SDS011;8366;51.020;7.642;2022-11-15T11:55:55;1.65;;;1.20;;
16506;SDS011;8366;51.020;7.642;2022-11-15T11:58:26;1.90;;;1.00;;
16506;SDS011;8366;51.020;7.642;2022-11-15T12:01:02;2.17;;;1.20;;
16506;SDS011;8366;51.020;7.642;2022-11-15T12:03:34;1.85;;;1.30;;
16506;SDS011;8366;51.020;7.642;2022-11-15T12:06:20;2.58;;;1.30;;
16506;SDS011;8366;51.020;7.642;2022-11-15T12:08:50;3.28;;;1.40;;
16506;SDS011;8366;51.020;7.642;2022-11-15T12:11:20;3.17;;;1.50;;
16506;SDS011;8366;51.020;7.642;2022-11-15T12:13:50;3.40;;;1.40;;
16506;SDS011;8366;51.020;7.642;2022-11-15T12:16:28;2.20;;;1.20;;
16506;SDS011;8366;51.020;7.642;2022-11-15T12:18:55;3.22;;;1.13;;
16506;SDS011;8366;51.020;7.642;2022-11-15T12:21:24;3.33;;;1.40;;
16506;SDS011;8366;51.020;7.642;2022-11-15T12:23:55;4.30;;;1.70;;
16506;SDS011;8366;51.020;7.642;2022-11-15T12:26:25;3.40;;;1.38;;
16506;SDS011;8366;51.020;7.642;2022-11-15T12:28:54;2.55;;;1.52;;
16506;SDS011;8366;51.020;7.642;2022-11-15T12:31:24;2.78;;;1.80;;
16506;SDS011;8366;51.020;7.642;2022-11-15T12:33:57;3.35;;;1.60;;
16506;SDS011;8366;51.020;7.642;2022-11-15T12:36:32;3.05;;;1.40;;
16506;SDS011;8366;51.020;7.642;2022-11-15T12:39:02;2.72;;;1.50;;
16506;SDS011;8366;51.020;7.642;2022-11-15T12:41:29;2.58;;;1.60;;
16506;SDS011;8366;51.020;7.642;2022-11-15T12:43:57;2.85;;;1.80;;
16506;SDS011;8366;51.020;7.642;2022-11-15T12:52:12;3.47;;;1.42;;
16506;SDS011;8366;51.020;7.642;2022-11-15T12:54:50;4.25;;;1.55;;
16506;SDS011;8366;51.020;7.642;2022-11-15T12:57:28;3.75;;;1.35;;
16506;SDS011;8366;51.020;7.642;2022-11-15T12:59:57;2.45;;;1.27;;
16506;SDS011;8366;51.020;7.642;2022-11-15T13:02:28;3.80;;;1.35;;
16506;SDS011;8366;51.020;7.642;2022-11-15T13:08:37;1.92;;;1.33;;
16506;SDS011;8366;51.020;7.642;2022-11-15T13:17:23;4.07;;;1.40;;
16506;SDS011;8366;51.020;7.642;2022-11-15T13:19:57;2.78;;;1.80;;
16506;SDS011;8366;51.020;7.642;2022-11-15T13:22:27;3.17;;;1.50;;
16506;SDS011;8366;51.020;7.642;2022-11-15T13:25:15;1.80;;;1.50;;
16506;SDS011;8366;51.020;7.642;2022-11-15T13:27:45;2.40;;;1.50;;
16506;SDS011;8366;51.020;7.642;2022-11-15T13:30:13;2.78;;;1.60;;
16506;SDS011;8366;51.020;7.642;2022-11-15T13:32:42;2.80;;;1.50;;
16506;SDS011;8366;51.020;7.642;2022-11-15T13:35:09;3.45;;;1.33;;
16506;SDS011;8366;51.020;7.642;2022-11-15T13:37:36;2.60;;;1.50;;
16506;SDS011;8366;51.020;7.642;2022-11-15T13:40:10;2.45;;;1.50;;
16506;SDS011;8366;51.020;7.642;2022-11-15T13:42:43;3.33;;;1.60;;
16506;SDS011;8366;51.020;7.642;2022-11-15T13:45:12;1.88;;;1.25;;
16506;SDS011;8366;51.020;7.642;2022-11-15T13:47:40;2.13;;;1.50;;
16506;SDS011;8366;51.020;7.642;2022-11-15T13:50:10;1.50;;;1.40;;
16506;SDS011;8366;51.020;7.642;2022-11-15T13:52:38;2.08;;;1.45;;
16506;SDS011;8366;51.020;7.642;2022-11-15T13:55:09;5.05;;;1.70;;
16506;SDS011;8366;51.020;7.642;2022-11-15T13:57:39;4.00;;;2.00;;
16506;SDS011;8366;51.020;7.642;2022-11-15T14:00:24;2.35;;;1.67;;
16506;SDS011;8366;51.020;7.642;2022-11-15T14:02:52;3.35;;;2.00;;
16506;SDS011;8366;51.020;7.642;2022-11-15T14:05:20;3.25;;;1.95;;
16506;SDS011;8366;51.020;7.642;2022-11-15T14:07:53;3.22;;;1.80;;
16506;SDS011;8366;51.020;7.642;2022-11-15T14:10:25;3.38;;;1.92;;
16506;SDS011;8366;51.020;7.642;2022-11-15T14:12:53;2.75;;;1.60;;
16506;SDS011;8366;51.020;7.642;2022-11-15T14:15:24;4.40;;;2.20;;
16506;SDS011;8366;51.020;7.642;2022-11-15T14:17:52;4.72;;;2.40;;
16506;SDS011;8366;51.020;7.642;2022-11-15T14:20:19;4.22;;;1.83;;
16506;SDS011;8366;51.020;7.642;2022-11-15T14:22:52;3.95;;;1.90;;
16506;SDS011;8366;51.020;7.642;2022-11-15T14:25:20;3.28;;;1.92;;
16506;SDS011;8366;51.020;7.642;2022-11-15T14:30:38;3.05;;;1.50;;
16506;SDS011;8366;51.020;7.642;2022-11-15T14:33:15;3.22;;;1.70;;
16506;SDS011;8366;51.020;7.642;2022-11-15T14:35:45;3.05;;;1.60;;
16506;SDS011;8366;51.020;7.642;2022-11-15T14:38:12;3.25;;;1.73;;
16506;SDS011;8366;51.020;7.642;2022-11-15T14:40:39;1.70;;;1.60;;
16506;SDS011;8366;51.020;7.642;2022-11-15T14:43:07;3.13;;;1.67;;
16506;SDS011;8366;51.020;7.642;2022-11-15T14:45:34;3.55;;;2.25;;
16506;SDS011;8366;51.020;7.642;2022-11-15T14:48:01;3.72;;;2.63;;
16506;SDS011;8366;51.020;7.642;2022-11-15T14:50:27;3.92;;;2.10;;
16506;SDS011;8366;51.020;7.642;2022-11-15T14:52:54;5.20;;;2.22;;
16506;SDS011;8366;51.020;7.642;2022-11-15T14:55:22;4.50;;;2.00;;
16506;SDS011;8366;51.020;7.642;2022-11-15T14:57:51;18.52;;;12.02;;
16506;SDS011;8366;51.020;7.642;2022-11-15T15:00:18;3.58;;;2.72;;
16506;SDS011;8366;51.020;7.642;2022-11-15T15:02:45;4.60;;;3.17;;
16506;SDS011;8366;51.020;7.642;2022-11-15T15:05:13;3.28;;;2.15;;
16506;SDS011;8366;51.020;7.642;2022-11-15T15:07:41;12.40;;;11.20;;
16506;SDS011;8366;51.020;7.642;2022-11-15T15:10:08;6.60;;;4.60;;
16506;SDS011;8366;51.020;7.642;2022-11-15T15:12:36;3.45;;;2.20;;
16506;SDS011;8366;51.020;7.642;2022-11-15T15:15:02;4.03;;;1.80;;
16506;SDS011;8366;51.020;7.642;2022-11-15T15:17:29;5.05;;;1.73;;
16506;SDS011;8366;51.020;7.642;2022-11-15T15:19:56;3.00;;;2.33;;
16506;SDS011;8366;51.020;7.642;2022-11-15T15:22:22;2.53;;;1.95;;
16506;SDS011;8366;51.020;7.642;2022-11-15T15:24:53;3.40;;;1.80;;
16506;SDS011;8366;51.020;7.642;2022-11-15T15:27:20;4.97;;;2.20;;
16506;SDS011;8366;51.020;7.642;2022-11-15T15:29:47;3.40;;;2.03;;
16506;SDS011;8366;51.020;7.642;2022-11-15T15:32:14;2.88;;;2.05;;
16506;SDS011;8366;51.020;7.642;2022-11-15T15:34:41;3.83;;;1.90;;
16506;SDS011;8366;51.020;7.642;2022-11-15T15:37:08;2.75;;;2.10;;